createdAt,value
2022-12-18T00:01:26.684Z,20.15
2022-12-18T00:03:55.793Z,19.85
2022-12-18T00:06:26.309Z,20.60
2022-12-18T00:08:54.263Z,20.08
2022-12-18T00:11:23.661Z,18.62
2022-12-18T00:13:51.308Z,19.30
2022-12-18T00:16:22.484Z,20.17
2022-12-18T00:18:51.269Z,20.35
2022-12-18T00:21:19.712Z,20.58
2022-12-18T00:23:47.902Z,19.55
2022-12-18T00:26:26.708Z,19.40
2022-12-18T00:28:57.612Z,19.62
2022-12-18T00:31:25.708Z,19.55
2022-12-18T00:33:57.747Z,19.25
2022-12-18T00:36:31.335Z,17.83
2022-12-18T00:39:00.446Z,19.15
2022-12-18T00:41:47.253Z,19.50
2022-12-18T00:44:16.728Z,19.50
2022-12-18T00:46:45.163Z,20.02
2022-12-18T00:49:12.652Z,18.83
2022-12-18T00:51:40.351Z,19.55
2022-12-18T00:54:08.099Z,21.23
2022-12-18T00:56:45.722Z,20.30
2022-12-18T00:59:17.001Z,19.17
2022-12-18T01:01:44.727Z,19.15
2022-12-18T01:04:12.625Z,19.70
2022-12-18T01:06:40.966Z,19.30
2022-12-18T01:09:08.345Z,19.45
2022-12-18T01:11:37.443Z,19.52
2022-12-18T01:14:05.512Z,19.60
2022-12-18T01:16:32.931Z,20.37
2022-12-18T01:19:00.289Z,19.98
2022-12-18T01:21:28.427Z,20.10
2022-12-18T01:23:57.296Z,20.75
2022-12-18T01:26:25.381Z,20.25
2022-12-18T01:28:54.707Z,20.08
2022-12-18T01:31:25.705Z,19.35
2022-12-18T01:33:53.916Z,20.30
2022-12-18T01:36:26.997Z,19.37
2022-12-18T01:38:55.243Z,19.95
2022-12-18T01:41:25.107Z,20.45
2022-12-18T01:43:56.009Z,19.73
2022-12-18T01:46:24.691Z,19.75
2022-12-18T01:48:56.262Z,20.12
2022-12-18T01:51:25.361Z,20.23
2022-12-18T01:53:52.812Z,20.52
2022-12-18T01:56:21.917Z,20.92
2022-12-18T01:59:16.992Z,19.87
2022-12-18T02:01:44.461Z,20.50
2022-12-18T02:04:21.827Z,20.50
2022-12-18T02:06:53.186Z,20.10
2022-12-18T02:09:27.701Z,21.37
2022-12-18T02:12:04.517Z,19.48
2022-12-18T02:14:39.692Z,20.00
2022-12-18T02:17:20.681Z,20.98
2022-12-18T02:19:50.903Z,20.25
2022-12-18T02:22:28.502Z,20.70
2022-12-18T02:25:09.553Z,20.67
2022-12-18T02:27:38.279Z,19.40
2022-12-18T02:30:07.113Z,21.58
2022-12-18T02:32:41.505Z,19.37
2022-12-18T02:35:14.862Z,19.95
2022-12-18T02:37:44.221Z,19.27
2022-12-18T02:40:13.743Z,20.80
2022-12-18T02:42:41.384Z,21.10
2022-12-18T02:45:09.362Z,20.40
2022-12-18T02:47:39.842Z,20.30
2022-12-18T02:50:25.950Z,20.75
2022-12-18T02:53:12.626Z,20.83
2022-12-18T02:56:02.061Z,19.80
2022-12-18T02:58:48.931Z,19.70
2022-12-18T03:01:22.972Z,20.85
2022-12-18T03:03:58.848Z,20.85
2022-12-18T03:06:31.536Z,20.23
2022-12-18T03:09:03.918Z,21.02
2022-12-18T03:11:53.718Z,19.75
2022-12-18T03:14:23.262Z,20.42
2022-12-18T03:16:54.483Z,21.00
2022-12-18T03:19:24.679Z,20.17
2022-12-18T03:21:55.459Z,19.70
2022-12-18T03:24:25.639Z,20.10
2022-12-18T03:27:01.106Z,20.02
2022-12-18T03:29:34.543Z,19.75
2022-12-18T03:32:32.223Z,19.60
2022-12-18T03:35:04.014Z,20.05
2022-12-18T03:37:32.571Z,20.42
2022-12-18T03:40:00.484Z,19.25
2022-12-18T03:42:34.090Z,19.10
2022-12-18T03:45:10.485Z,19.92
2022-12-18T03:48:00.200Z,20.42
2022-12-18T03:50:48.206Z,19.67
2022-12-18T03:53:30.188Z,20.67
2022-12-18T03:56:00.210Z,20.00
2022-12-18T03:58:33.890Z,20.50
2022-12-18T04:01:07.161Z,20.92
2022-12-18T04:03:36.636Z,21.10
2022-12-18T04:06:04.444Z,20.25
2022-12-18T04:08:34.320Z,19.70
2022-12-18T04:11:02.960Z,20.25
2022-12-18T04:13:35.416Z,20.75
2022-12-18T04:18:31.096Z,20.33
2022-12-18T04:21:00.502Z,19.83
2022-12-18T04:23:29.408Z,19.92
2022-12-18T04:25:57.230Z,20.58
2022-12-18T04:28:27.219Z,20.58
2022-12-18T04:30:55.093Z,19.15
2022-12-18T04:33:23.027Z,21.70
2022-12-18T04:35:50.510Z,20.00
2022-12-18T04:38:18.543Z,21.20
2022-12-18T04:40:46.853Z,20.40
2022-12-18T04:43:15.596Z,20.25
2022-12-18T04:45:43.252Z,20.05
2022-12-18T04:48:10.603Z,20.65
2022-12-18T04:50:38.230Z,18.80
2022-12-18T04:53:05.873Z,19.90
2022-12-18T04:55:33.344Z,19.55
2022-12-18T04:58:00.878Z,19.12
2022-12-18T05:00:28.773Z,22.58
2022-12-18T05:02:56.561Z,21.25
2022-12-18T05:05:24.011Z,21.17
2022-12-18T05:07:51.594Z,20.37
2022-12-18T05:10:19.128Z,19.65
2022-12-18T05:12:59.074Z,20.08
2022-12-18T05:15:32.470Z,19.80
2022-12-18T05:18:00.444Z,19.35
2022-12-18T05:20:28.987Z,18.58
2022-12-18T05:22:56.845Z,19.10
2022-12-18T05:25:24.386Z,21.00
2022-12-18T05:27:52.035Z,20.42
2022-12-18T05:30:19.370Z,19.33
2022-12-18T05:32:46.907Z,20.45
2022-12-18T05:35:14.483Z,19.23
2022-12-18T05:37:43.487Z,19.52
2022-12-18T05:40:12.031Z,19.87
2022-12-18T05:42:39.688Z,20.27
2022-12-18T05:45:07.542Z,19.70
2022-12-18T05:47:34.947Z,21.48
2022-12-18T05:50:02.611Z,19.65
2022-12-18T05:52:30.016Z,19.08
2022-12-18T05:54:57.320Z,21.23
2022-12-18T05:57:24.926Z,21.02
2022-12-18T05:59:52.380Z,20.50
2022-12-18T06:02:21.936Z,20.33
2022-12-18T06:04:49.634Z,22.05
2022-12-18T06:07:16.954Z,20.27
2022-12-18T06:09:44.600Z,20.52
2022-12-18T06:12:12.219Z,20.80
2022-12-18T06:14:40.018Z,20.20
2022-12-18T06:17:07.337Z,19.98
2022-12-18T06:19:34.915Z,19.75
2022-12-18T06:22:02.300Z,21.90
2022-12-18T06:24:29.728Z,20.15
2022-12-18T06:26:57.347Z,20.62
2022-12-18T06:29:24.668Z,20.17
2022-12-18T06:31:52.170Z,21.17
2022-12-18T06:34:19.954Z,21.23
2022-12-18T06:36:47.264Z,20.85
2022-12-18T06:39:14.650Z,21.55
2022-12-18T06:41:42.350Z,20.45
2022-12-18T06:44:09.712Z,21.92
2022-12-18T06:46:38.930Z,19.50
2022-12-18T06:49:06.649Z,21.62
2022-12-18T06:51:34.054Z,22.85
2022-12-18T06:54:01.448Z,20.10
2022-12-18T06:56:29.134Z,20.33
2022-12-18T06:58:56.507Z,20.98
2022-12-18T07:01:23.914Z,21.62
2022-12-18T07:03:55.803Z,23.65
2022-12-18T07:06:24.850Z,25.53
2022-12-18T07:08:53.291Z,25.42
2022-12-18T07:11:21.086Z,24.25
2022-12-18T07:13:48.516Z,25.65
2022-12-18T07:16:24.265Z,24.83
2022-12-18T07:18:53.215Z,23.50
2022-12-18T07:21:20.963Z,21.20
2022-12-18T07:23:49.270Z,22.15
2022-12-18T07:26:19.165Z,21.20
2022-12-18T07:28:47.299Z,20.52
2022-12-18T07:31:20.216Z,22.23
2022-12-18T07:33:50.020Z,22.40
2022-12-18T07:36:17.461Z,22.27
2022-12-18T07:38:48.080Z,22.02
2022-12-18T07:41:16.227Z,21.75
2022-12-18T07:43:44.412Z,22.37
2022-12-18T07:46:14.658Z,21.42
2022-12-18T07:48:44.279Z,21.12
2022-12-18T07:51:17.170Z,21.87
2022-12-18T07:53:46.274Z,23.30
2022-12-18T07:56:31.228Z,22.02
2022-12-18T07:59:00.044Z,22.87
2022-12-18T08:01:28.012Z,25.25
2022-12-18T08:03:55.893Z,23.65
2022-12-18T08:06:24.511Z,23.85
2022-12-18T08:08:53.799Z,23.92
2022-12-18T08:11:22.362Z,25.05
2022-12-18T08:13:49.759Z,25.25
2022-12-18T08:16:17.782Z,25.55
2022-12-18T08:18:45.473Z,23.08
2022-12-18T08:21:18.071Z,24.65
2022-12-18T08:23:46.313Z,25.10
2022-12-18T08:26:14.475Z,24.37
2022-12-18T08:28:41.876Z,24.52
2022-12-18T08:31:10.195Z,22.87
2022-12-18T08:33:38.856Z,24.37
2022-12-18T08:36:07.503Z,25.10
2022-12-18T08:38:35.387Z,22.00
2022-12-18T08:41:07.975Z,23.62
2022-12-18T08:43:54.391Z,23.77
2022-12-18T08:46:23.021Z,22.42
2022-12-18T08:48:54.624Z,23.95
2022-12-18T08:51:22.056Z,23.67
2022-12-18T08:53:49.532Z,22.65
2022-12-18T08:56:17.667Z,21.27
2022-12-18T08:58:45.212Z,21.73
2022-12-18T09:01:13.739Z,21.48
2022-12-18T09:03:41.731Z,21.75
2022-12-18T09:06:09.439Z,20.33
2022-12-18T09:08:38.112Z,21.52
2022-12-18T09:11:06.119Z,20.77
2022-12-18T09:13:33.418Z,20.95
2022-12-18T09:16:00.953Z,19.92
2022-12-18T09:18:28.519Z,19.95
2022-12-18T09:20:55.968Z,20.98
2022-12-18T09:23:23.287Z,21.83
2022-12-18T09:25:50.859Z,21.33
2022-12-18T09:28:19.954Z,20.60
2022-12-18T09:30:50.910Z,20.35
2022-12-18T09:33:18.750Z,19.50
2022-12-18T09:35:47.166Z,20.73
2022-12-18T09:38:16.743Z,23.20
2022-12-18T09:40:46.863Z,20.42
2022-12-18T09:43:22.787Z,21.35
2022-12-18T09:45:56.404Z,20.35
2022-12-18T09:48:28.616Z,21.12
2022-12-18T09:50:59.672Z,20.48
2022-12-18T09:53:29.239Z,21.83
2022-12-18T09:55:57.368Z,22.15
2022-12-18T09:58:45.241Z,19.98
2022-12-18T10:01:15.762Z,20.08
2022-12-18T10:03:45.635Z,18.73
2022-12-18T10:06:19.981Z,22.87
2022-12-18T10:08:56.344Z,21.27
2022-12-18T10:11:39.905Z,20.62
2022-12-18T10:14:15.931Z,19.33
2022-12-18T10:16:51.655Z,20.30
2022-12-18T10:19:35.819Z,20.90
2022-12-18T10:22:31.347Z,19.10
2022-12-18T10:27:34.335Z,19.48
2022-12-18T10:30:09.230Z,19.50
2022-12-18T10:32:36.591Z,18.35
2022-12-18T10:35:04.426Z,18.48
2022-12-18T10:37:31.813Z,24.08
2022-12-18T10:40:21.576Z,21.10
2022-12-18T10:43:12.723Z,19.87
2022-12-18T10:45:40.639Z,18.85
2022-12-18T10:48:24.182Z,20.12
2022-12-18T10:51:13.046Z,21.75
2022-12-18T10:53:42.934Z,20.77
2022-12-18T10:56:10.510Z,22.67
2022-12-18T10:58:39.633Z,22.20
2022-12-18T11:01:21.030Z,21.55
2022-12-18T11:03:51.570Z,19.77
2022-12-18T11:06:22.755Z,19.50
2022-12-18T11:09:01.660Z,20.10
2022-12-18T11:11:30.140Z,22.23
2022-12-18T11:14:12.507Z,18.77
2022-12-18T11:19:39.019Z,17.45
2022-12-18T11:22:28.659Z,17.87
2022-12-18T11:25:33.162Z,17.73
2022-12-18T11:28:05.816Z,18.65
2022-12-18T11:30:35.499Z,17.65
2022-12-18T11:33:07.383Z,16.05
2022-12-18T11:35:57.008Z,16.02
2022-12-18T11:38:27.031Z,15.00
2022-12-18T11:40:59.897Z,14.77
2022-12-18T11:43:30.699Z,14.18
2022-12-18T11:46:13.516Z,16.50
2022-12-18T11:48:46.389Z,15.80
2022-12-18T11:51:23.834Z,16.80
2022-12-18T11:53:54.816Z,17.77
2022-12-18T11:56:37.268Z,17.02
2022-12-18T12:01:50.086Z,14.40
2022-12-18T12:07:36.508Z,14.38
2022-12-18T12:10:09.654Z,14.07
2022-12-18T12:12:49.470Z,13.38
2022-12-18T12:15:40.331Z,12.88
2022-12-18T12:18:39.474Z,12.35
2022-12-18T12:21:33.037Z,13.93
2022-12-18T12:24:03.498Z,13.23
2022-12-18T12:26:46.512Z,13.85
2022-12-18T12:29:46.737Z,13.80
2022-12-18T12:32:29.094Z,12.77
2022-12-18T12:35:19.004Z,13.20
2022-12-18T12:38:11.332Z,12.00
2022-12-18T12:41:00.479Z,11.40
2022-12-18T12:43:37.013Z,12.30
2022-12-18T12:46:11.120Z,13.48
2022-12-18T12:48:48.715Z,13.32
2022-12-18T12:51:33.196Z,15.20
2022-12-18T12:54:02.735Z,16.37
2022-12-18T12:57:17.492Z,14.80
2022-12-18T12:59:59.171Z,14.43
2022-12-18T13:02:32.186Z,12.77
2022-12-18T13:05:19.050Z,15.35
2022-12-18T13:07:59.513Z,15.35
2022-12-18T13:10:32.889Z,13.93
2022-12-18T13:13:17.184Z,15.07
2022-12-18T13:16:03.876Z,17.08
2022-12-18T13:18:31.939Z,16.37
2022-12-18T13:21:03.033Z,17.30
2022-12-18T13:23:32.439Z,23.75
2022-12-18T13:26:09.684Z,20.37
2022-12-18T13:28:46.869Z,24.55
2022-12-18T13:31:15.457Z,17.67
2022-12-18T13:34:16.932Z,19.20
2022-12-18T13:36:35.281Z,17.73
2022-12-18T13:39:35.175Z,19.33
2022-12-18T13:42:06.066Z,19.37
2022-12-18T13:44:40.910Z,18.35
2022-12-18T13:47:35.063Z,17.87
2022-12-18T13:50:11.399Z,17.65
2022-12-18T13:52:40.551Z,17.55
2022-12-18T13:55:16.487Z,16.65
2022-12-18T13:57:44.478Z,18.08
2022-12-18T14:00:24.583Z,23.00
2022-12-18T14:02:52.572Z,19.62
2022-12-18T14:05:34.976Z,20.42
2022-12-18T14:08:11.761Z,20.23
2022-12-18T14:10:48.862Z,22.05
2022-12-18T14:13:30.949Z,21.98
2022-12-18T14:16:03.098Z,22.30
2022-12-18T14:18:56.881Z,22.37
2022-12-18T14:21:33.516Z,20.27
2022-12-18T14:24:28.864Z,19.60
2022-12-18T14:27:14.899Z,20.02
2022-12-18T14:29:44.074Z,20.00
2022-12-18T14:32:18.908Z,20.92
2022-12-18T14:34:48.863Z,24.42
2022-12-18T14:37:21.540Z,22.70
2022-12-18T14:39:59.591Z,24.65
2022-12-18T14:42:30.255Z,26.50
2022-12-18T14:45:41.440Z,31.30
2022-12-18T14:48:15.430Z,33.95
2022-12-18T14:50:56.705Z,35.45
2022-12-18T14:53:33.879Z,39.88
2022-12-18T14:56:02.326Z,42.58
2022-12-18T14:58:29.690Z,41.37
2022-12-18T15:00:57.232Z,40.53
2022-12-18T15:03:25.024Z,37.30
2022-12-18T15:05:53.499Z,39.67
2022-12-18T15:08:37.664Z,38.35
2022-12-18T15:11:28.196Z,38.22
2022-12-18T15:13:55.546Z,40.20
2022-12-18T15:16:23.244Z,42.90
2022-12-18T15:18:50.675Z,44.50
2022-12-18T15:21:20.266Z,47.25
2022-12-18T15:23:50.535Z,41.95
2022-12-18T15:26:19.550Z,45.40
2022-12-18T15:28:53.535Z,43.00
2022-12-18T15:31:23.973Z,42.92
2022-12-18T15:33:54.298Z,43.10
2022-12-18T15:36:26.874Z,42.05
2022-12-18T15:38:55.500Z,40.78
2022-12-18T15:41:36.751Z,42.17
2022-12-18T15:44:20.452Z,50.08
2022-12-18T15:46:48.067Z,58.38
2022-12-18T15:49:15.452Z,62.88
2022-12-18T15:51:42.863Z,65.15
2022-12-18T15:54:13.980Z,62.90
2022-12-18T15:56:59.933Z,60.47
2022-12-18T15:59:27.765Z,57.60
2022-12-18T16:01:55.224Z,61.37
2022-12-18T16:04:24.453Z,58.28
2022-12-18T16:09:40.238Z,49.10
2022-12-18T16:12:09.909Z,48.17
2022-12-18T16:14:37.283Z,52.97
2022-12-18T16:17:10.284Z,57.17
2022-12-18T16:19:37.647Z,59.35
2022-12-18T16:22:05.887Z,58.17
2022-12-18T16:24:37.052Z,64.40
2022-12-18T16:27:04.716Z,72.25
2022-12-18T16:29:32.082Z,77.60
2022-12-18T16:32:00.942Z,85.87
2022-12-18T16:34:35.626Z,96.95
2022-12-18T16:37:06.319Z,96.82
2022-12-18T16:39:35.464Z,104.68
2022-12-18T16:42:05.918Z,100.93
2022-12-18T16:44:34.683Z,97.15
2022-12-18T16:47:03.953Z,100.45
2022-12-18T16:49:31.728Z,104.45
2022-12-18T16:51:59.400Z,105.20
2022-12-18T16:54:26.855Z,111.28
2022-12-18T16:56:54.227Z,134.12
2022-12-18T16:59:21.830Z,131.80
2022-12-18T17:01:49.222Z,119.57
2022-12-18T17:04:17.195Z,94.95
2022-12-18T17:06:45.898Z,90.03
2022-12-18T17:09:15.373Z,81.07
2022-12-18T17:11:43.563Z,69.00
2022-12-18T17:14:14.314Z,65.35
2022-12-18T17:16:41.901Z,60.45
2022-12-18T17:19:15.317Z,75.62
2022-12-18T17:21:47.197Z,62.30
2022-12-18T17:24:14.718Z,57.25
2022-12-18T17:26:42.341Z,54.65
2022-12-18T17:29:14.196Z,66.97
2022-12-18T17:31:41.611Z,63.43
2022-12-18T17:34:11.172Z,61.97
2022-12-18T17:36:39.409Z,61.03
2022-12-18T17:39:07.658Z,53.22
2022-12-18T17:41:35.516Z,52.92
2022-12-18T17:44:05.636Z,48.50
2022-12-18T17:46:34.157Z,44.58
2022-12-18T17:49:02.727Z,43.55
2022-12-18T17:51:30.652Z,41.75
2022-12-18T17:53:58.131Z,42.33
2022-12-18T17:56:26.002Z,35.88
2022-12-18T17:58:53.741Z,35.90
2022-12-18T18:01:23.839Z,42.33
2022-12-18T18:03:53.532Z,45.10
2022-12-18T18:06:22.708Z,38.78
2022-12-18T18:08:50.638Z,36.33
2022-12-18T18:11:38.882Z,34.30
2022-12-18T18:14:10.840Z,34.25
2022-12-18T18:16:42.281Z,34.25
2022-12-18T18:19:15.521Z,36.22
2022-12-18T18:21:44.684Z,33.85
2022-12-18T18:24:17.907Z,31.33
2022-12-18T18:26:49.267Z,31.48
2022-12-18T18:29:18.788Z,30.75
2022-12-18T18:31:47.128Z,30.85
2022-12-18T18:34:19.443Z,34.05
2022-12-18T18:36:47.213Z,32.67
2022-12-18T18:39:14.947Z,33.00
2022-12-18T18:41:46.861Z,39.10
2022-12-18T18:44:17.563Z,40.38
2022-12-18T18:46:45.209Z,45.58
2022-12-18T18:49:13.812Z,40.15
2022-12-18T18:51:42.039Z,41.83
2022-12-18T18:54:09.868Z,38.50
2022-12-18T18:57:04.098Z,41.63
2022-12-18T18:59:31.792Z,39.45
2022-12-18T19:02:04.099Z,37.95
2022-12-18T19:04:33.713Z,40.75
2022-12-18T19:07:01.131Z,39.90
2022-12-18T19:09:28.767Z,39.15
2022-12-18T19:12:16.021Z,40.67
2022-12-18T19:14:44.531Z,39.15
2022-12-18T19:17:12.283Z,41.50
2022-12-18T19:19:39.864Z,39.90
2022-12-18T19:22:07.520Z,37.92
2022-12-18T19:24:35.854Z,35.60
2022-12-18T19:27:03.447Z,38.15
2022-12-18T19:29:30.860Z,45.97
2022-12-18T19:31:58.734Z,50.12
2022-12-18T19:34:26.813Z,50.40
2022-12-18T19:36:59.633Z,48.78
2022-12-18T19:39:27.830Z,53.22
2022-12-18T19:41:55.167Z,49.88
2022-12-18T19:44:22.478Z,49.22
2022-12-18T19:46:51.576Z,47.40
2022-12-18T19:49:18.947Z,45.22
2022-12-18T19:51:46.496Z,42.83
2022-12-18T19:54:16.939Z,41.55
2022-12-18T19:56:45.673Z,42.97
2022-12-18T19:59:13.743Z,40.65
2022-12-18T20:01:41.585Z,40.42
2022-12-18T20:04:09.366Z,42.83
2022-12-18T20:06:47.913Z,41.88
2022-12-18T20:09:15.771Z,43.05
2022-12-18T20:11:44.020Z,41.28
2022-12-18T20:14:12.534Z,43.15
2022-12-18T20:16:40.730Z,43.22
2022-12-18T20:19:08.674Z,45.12
2022-12-18T20:21:36.917Z,46.28
2022-12-18T20:24:04.927Z,42.67
2022-12-18T20:26:32.466Z,41.47
2022-12-18T20:28:59.902Z,40.28
2022-12-18T20:31:27.514Z,42.38
2022-12-18T20:34:00.334Z,41.15
2022-12-18T20:36:30.715Z,41.55
2022-12-18T20:39:01.824Z,38.42
2022-12-18T20:44:08.506Z,36.63
2022-12-18T20:46:46.618Z,38.53
2022-12-18T20:49:13.939Z,40.35
2022-12-18T20:51:41.305Z,40.80
2022-12-18T20:54:11.742Z,40.15
2022-12-18T20:56:39.376Z,39.90
2022-12-18T20:59:07.299Z,38.42
2022-12-18T21:01:35.049Z,41.03
2022-12-18T21:04:03.803Z,39.60
2022-12-18T21:06:31.618Z,38.63
2022-12-18T21:08:59.256Z,37.95
2022-12-18T21:11:50.924Z,37.28
2022-12-18T21:14:20.243Z,37.10
2022-12-18T21:16:47.955Z,37.55
2022-12-18T21:19:17.802Z,37.83
2022-12-18T21:21:46.027Z,38.42
2022-12-18T21:24:13.673Z,39.90
2022-12-18T21:26:45.458Z,38.22
2022-12-18T21:29:16.419Z,38.28
2022-12-18T21:31:44.237Z,38.47
2022-12-18T21:34:26.526Z,37.65
2022-12-18T21:39:22.656Z,42.40
2022-12-18T21:42:09.397Z,47.13
2022-12-18T21:44:42.366Z,43.25
2022-12-18T21:47:17.584Z,47.62
2022-12-18T21:49:51.927Z,44.83
2022-12-18T21:52:20.421Z,42.67
2022-12-18T21:54:52.187Z,41.85
2022-12-18T21:57:19.585Z,39.83
2022-12-18T21:59:46.940Z,36.40
2022-12-18T22:02:17.378Z,38.22
2022-12-18T22:04:46.849Z,36.88
2022-12-18T22:07:15.791Z,36.00
2022-12-18T22:09:43.228Z,38.78
2022-12-18T22:12:13.217Z,38.05
2022-12-18T22:14:40.572Z,38.72
2022-12-18T22:17:07.904Z,39.63
2022-12-18T22:19:42.708Z,38.08
2022-12-18T22:22:10.467Z,39.08
2022-12-18T22:24:38.083Z,38.10
2022-12-18T22:27:05.643Z,38.13
2022-12-18T22:29:51.939Z,37.50
2022-12-18T22:32:30.879Z,37.00
2022-12-18T22:35:05.819Z,35.85
2022-12-18T22:37:36.008Z,36.83
2022-12-18T22:40:06.174Z,39.17
2022-12-18T22:42:35.061Z,39.80
2022-12-18T22:45:02.668Z,39.13
2022-12-18T22:47:30.903Z,40.90
2022-12-18T22:49:58.505Z,42.95
2022-12-18T22:52:26.176Z,43.63
2022-12-18T22:54:54.422Z,40.95
2022-12-18T22:57:22.784Z,41.53
2022-12-18T22:59:50.899Z,43.45
2022-12-18T23:02:19.038Z,39.65
2022-12-18T23:04:47.651Z,38.30
2022-12-18T23:07:16.391Z,37.58
2022-12-18T23:09:44.144Z,37.92
2022-12-18T23:12:16.832Z,37.83
2022-12-18T23:14:44.991Z,37.57
2022-12-18T23:17:12.300Z,39.10
2022-12-18T23:19:44.064Z,40.63
2022-12-18T23:22:14.910Z,38.28
2022-12-18T23:24:42.285Z,38.55
2022-12-18T23:27:11.731Z,40.33
2022-12-18T23:29:40.637Z,38.90
2022-12-18T23:32:08.366Z,40.90
2022-12-18T23:34:35.719Z,41.97
2022-12-18T23:37:03.851Z,40.10
2022-12-18T23:39:31.654Z,39.95
2022-12-18T23:41:59.148Z,41.72
2022-12-18T23:44:27.082Z,39.95
2022-12-18T23:46:55.055Z,40.42
2022-12-18T23:49:22.859Z,38.28
2022-12-18T23:51:50.962Z,39.75
2022-12-18T23:54:18.948Z,39.85
2022-12-18T23:56:56.962Z,40.50
2022-12-18T23:59:25.669Z,41.58
